Jacksonville, FL

4:47 AM EDT on August 26, 2016 (GMT -0400)
Jacksonville International | | Change Station

Elev 30 ft 30.49 °N, 81.69 °W | Updated 51 minutes ago

Scattered Clouds
Scattered Clouds
74 °F
Feels Like 74 °F
N
4
Wind Variable Wind from North

Today
High -- | Low -- °F
--% Chance of Precip.
Yesterday
High -- | Low -- °F
Precip. -- in
Pressure 30.05 in
Visibility 10.0 miles
Clouds Few 8500 ft
Scattered Clouds 25000 ft
Dew Point 73 °F
Humidity 97%
Rainfall 0.00 in
Snow Depth Not available.
7:00 AM 7:56 PM
Last Quarter, 36% visible
METAR KJAX 260756Z 01003KT 10SM FEW085 SCT250 23/23 A3004 RMK AO2 SLP174 T02330228 $
Pressure 30.05 in
Visibility 10.0 miles
Clouds Few 8500 ft
Scattered Clouds 25000 ft
Dew Point 73 °F
Humidity 97%
Rainfall 0.00 in
Snow Depth Not available.
7:00 AM 7:56 PM
Last Quarter, 36% visible
METAR KJAX 260756Z 01003KT 10SM FEW085 SCT250 23/23 A3004 RMK AO2 SLP174 T02330228 $

10-Day Weather Forecast

Almanac

Astronomy

Aug. 26, 2016 Rise Set
Actual Time
Civil Twilight
Nautical Twilight
Astronomical Twilight
Moon
Length of Visible Light
Length of Day
Tomorrow will be .
, % of the Moon is Illuminated

Today's Extremes

State Highs State Lows

Community

WunderPhotos

Upload Photos

1,935,062 photos uploaded!

WunderBlog® & News

Nearby

Air Quality

  Air Quality AQ Index Pollutant
Not available.

Snow Depth

Station Depth Elevation

Earthquake Activity

City Distance Mag. Time & Date
Minimum magnitude displayed is 2.5.

Coastal Water Temperatures

Place Temperature

Stations

Nearby Weather Stations

Station Location Temp. Windchill Dew Point Humidity Wind Precip. Elev Updated Type
                   

Watches & Warnings

There are currently no watches in effect.